Have a Safe July 4th! 

Flight Track Log - Related Links

Times and Time Zones

All times are in EDT time to prevent confusion due to time zone crossing. See the SKW2974 flight status page for this flight to view local times or setup timezone preferences in your user account.

Time Position Orientation Groundspeed Altitude Reporting Facility
EDT Latitude Longitude Course Direction KTS MPH feet Rate Location/Type
Wed 11:53:17 AM 33.4333 -111.9833 90° East 175 201 1,800  Level Phoenix TRACON
Wed 11:54:12 AM 33.4333 -111.9167 90° East 209 241 3,500 2,264 Climbing Phoenix TRACON
Wed 11:55:03 AM 33.4425 -111.8636 78° East 222 255 5,800 2,442 Climbing Albuquerque Center
Wed 11:56:05 AM 33.5053 -111.8236 28° Northeast 268 308 8,100 2,323 Climbing Albuquerque Center
Wed 11:57:07 AM 33.5847 -111.8100 North 286 329 10,600 2,419 Climbing Albuquerque Center
Wed 11:58:09 AM 33.6681 -111.7958 North 297 342 13,100 1,935 Climbing Albuquerque Center
Wed 11:59:11 AM 33.7561 -111.7803 North 313 360 14,600 1,597 Climbing Albuquerque Center
Wed 12:00:13 PM 33.8689 -111.7606 North 337 388 16,400 1,548 Climbing Albuquerque Center
Wed 12:01:15 PM 33.9644 -111.7442 North 352 405 17,800 1,452 Climbing Albuquerque Center
Wed 12:02:17 PM 34.0742 -111.7217 10° North 358 412 19,400 1,548 Climbing Albuquerque Center
Wed 12:03:19 PM 34.1453 -111.6575 37° Northeast 373 429 21,000 1,403 Climbing Albuquerque Center
Wed 12:04:21 PM 34.2564 -111.5972 24° Northeast 367 422 22,300 1,065 Climbing Albuquerque Center
Wed 12:05:23 PM 34.3539 -111.5444 24° Northeast 377 434 23,200 823 Climbing Albuquerque Center
Wed 12:06:25 PM 34.4536 -111.4889 25° Northeast 390 449 24,000 774 Climbing Albuquerque Center
Wed 12:07:27 PM 34.5561 -111.4331 24° Northeast 398 458 24,800 774 Climbing Albuquerque Center
Wed 12:08:29 PM 34.6586 -111.3753 25° Northeast 404 465 25,600 780 Climbing Albuquerque Center
Wed 12:09:30 PM 34.7642 -111.3183 24° Northeast 412 474 26,400 829 Climbing Albuquerque Center
Wed 12:10:32 PM 34.8894 -111.2483 25° Northeast 413 475 27,300 871 Climbing Albuquerque Center
Wed 12:11:34 PM 34.9953 -111.1886 25° Northeast 416 479 28,200 823 Climbing Albuquerque Center
Wed 12:12:36 PM 35.1019 -111.1306 24° Northeast 419 482 29,000 387 Climbing Albuquerque Center
Wed 12:13:38 PM 35.2100 -111.0672 26° Northeast 426 490 29,000  Level Albuquerque Center
Wed 12:14:40 PM 35.3397 -110.9950 24° Northeast 447 514 29,000  Level Albuquerque Center
Wed 12:15:42 PM 35.4483 -110.9353 24° Northeast 449 517 29,000  Level Albuquerque Center
Wed 12:16:44 PM 35.5717 -110.8669 24° Northeast 439 505 29,000  Level Albuquerque Center
Wed 12:17:46 PM 35.6733 -110.8081 25° Northeast 428 493 29,000  Level Albuquerque Center
Wed 12:18:48 PM 35.7928 -110.7403 25° Northeast 423 487 29,000 -532 Level Albuquerque Center
Wed 12:19:50 PM 35.8933 -110.6822 25° Northeast 419 482 27,900 -1,102 Descending Albuquerque Center
Wed 12:20:26 PM 35.9589 -110.6458 24° Northeast 418 481 27,200 -551 Descending Denver Center
Wed 12:21:28 PM 36.0633 -110.5858 25° Northeast 415 478 27,000 -97 Descending Denver Center
Wed 12:22:30 PM 36.1636 -110.5289 25° Northeast 404 465 27,000  Level Denver Center
Wed 12:23:32 PM 36.2669 -110.4703 25° Northeast 405 466 27,000  Level Denver Center
Wed 12:24:34 PM 36.3981 -110.3947 25° Northeast 425 489 27,000  Level Denver Center
Wed 12:25:36 PM 36.5128 -110.3289 25° Northeast 442 509 27,000  Level Denver Center
Wed 12:26:38 PM 36.6314 -110.2597 25° Northeast 464 534 27,000  Level Denver Center
Wed 12:27:40 PM 36.7475 -110.1908 25° Northeast 463 533 27,000  Level Denver Center
Wed 12:28:42 PM 36.8669 -110.1222 25° Northeast 469 540 27,000  Level Denver Center
Wed 12:29:44 PM 36.9806 -110.0114 38° Northeast 464 534 27,000  Level Denver Center
Wed 12:30:46 PM 37.0628 -109.9075 45° Northeast 442 509 27,000  Level Denver Center
Wed 12:31:48 PM 37.1542 -109.7900 46° Northeast 424 488 27,000  Level Denver Center
Wed 12:32:50 PM 37.2300 -109.6908 46° Northeast 414 476 27,000  Level Denver Center
Wed 12:33:52 PM 37.3161 -109.5797 46° Northeast 398 458 27,000  Level Denver Center
Wed 12:34:54 PM 37.3889 -109.4856 46° Northeast 392 451 27,000  Level Denver Center
Wed 12:35:56 PM 37.4750 -109.3717 46° Northeast 402 463 27,000  Level Denver Center
Wed 12:36:58 PM 37.5439 -109.2819 46° Northeast 377 434 27,000  Level Denver Center
Wed 12:38:00 PM 37.6094 -109.1944 47° Northeast 361 415 27,000  Level Denver Center
Wed 12:39:02 PM 37.6844 -109.0953 46° Northeast 351 404 27,000  Level Denver Center
Wed 12:40:16 PM 37.7489 -109.0097 46° Northeast 350 403 27,000 -30 Level Denver Center
Wed 12:42:21 PM 37.9614 -108.8636 28° Northeast 378 435 26,900 -706 Descending Denver Center
Wed 12:43:23 PM 38.0553 -108.8164 22° Northeast 378 435 24,800 -2,129 Descending Denver Center
Wed 12:44:25 PM 38.1569 -108.7678 21° North 373 429 22,500 -1,935 Descending Denver Center
Wed 12:45:27 PM 38.2358 -108.7297 21° North 377 434 20,800 -2,226 Descending Denver Center
Wed 12:46:29 PM 38.3678 -108.6672 20° North 394 453 17,900 -2,371 Descending Denver Center
Wed 12:47:31 PM 38.4761 -108.6156 20° North 385 443 15,900 -1,403 Descending Denver Center
Wed 12:48:33 PM 38.5661 -108.5719 21° North 344 396 15,000 -919 Descending Denver Center
Wed 12:49:35 PM 38.6425 -108.5358 20° North 311 358 14,000 -1,210 Descending Denver Center
Wed 12:50:37 PM 38.7300 -108.4925 21° North 299 344 12,500 -1,161 Descending Denver Center
Wed 12:51:39 PM 38.7944 -108.4617 20° North 258 297 11,600 -1,306 Descending Denver Center
Wed 12:52:41 PM 38.8572 -108.4239 25° Northeast 226 260 9,800 -1,147 Descending Denver Center
Wed 12:53:55 PM 38.9089 -108.3867 29° Northeast 214 246 9,000 -701 Descending Denver Center
Wed 12:54:58 PM 38.9697 -108.3806 North 184 212 8,200 -532 Descending Denver Center
Wed 12:55:59 PM 39.0031 -108.4092 326° Northwest 169 194 7,900 -677 Descending Denver Center
Wed 12:57:02 PM 39.0469 -108.4472 326° Northwest 153 176 6,800 -960 Descending Denver Center
Wed 12:58:04 PM 39.0814 -108.4794 324° Northwest 152 175 5,900 -871 Descending Denver Center
Wed 12:59:06 PM 39.1172 -108.5125 324° Northwest 150 173 5,000 -484 Descending Denver Center
Wed 01:00:08 PM 39.1389 -108.5531 305° West 149 171 4,900 -97 Descending Denver Center
Wed 01:02:00 PM 39.1224 -108.5267 123° Southeast  Level Estimated
Wed 01:09:00 PM 39.1224 -108.5267 123° Southeast  Level Estimated

Login

Don't have an account? Register now (free) for customized features, flight alerts, and more!